Time;durP1;ratioP1;P1;durP2;ratioP2;P2;SDS_P1;SDS_P2;PMS_P1;PMS_P2;Temp;Humidity;BMP_temperature;BMP_pressure;BME280_temperature;BME280_humidity;BME280_pressure;Samples;Min_cycle;Max_cycle;Signal;HPM_P1;HPM_P2
2022/03/28 00:01:22;;;;;;;;;;;21.10;40.00;;;;;;5052797;28;20384;-40
2022/03/28 00:03:49;;;;;;;;;;;21.10;40.00;;;;;;5052882;28;19925;-38
2022/03/28 00:06:16;;;;;;;;;;;21.10;40.00;;;;;;5052404;28;19931;-39
2022/03/28 00:08:43;;;;;;;;;;;21.10;40.00;;;;;;5051961;28;19928;-40
2022/03/28 00:11:10;;;;;;;;;;;21.00;40.00;;;;;;5053101;28;19971;-38
2022/03/28 00:13:37;;;;;;;;;;;21.00;40.00;;;;;;5053081;28;19925;-41
2022/03/28 00:16:04;;;;;;;;;;;21.00;40.00;;;;;;5056401;28;19932;-40
2022/03/28 00:18:31;;;;;;;;;;;21.00;40.00;;;;;;5056277;28;20011;-42
2022/03/28 00:20:58;;;;;;;;;;;21.00;40.00;;;;;;5064529;28;19985;-39
2022/03/28 00:23:25;;;;;;;;;;;21.00;40.00;;;;;;5077088;28;19925;-39
2022/03/28 00:25:52;;;;;;;;;;;21.00;40.00;;;;;;5076437;28;19979;-41
2022/03/28 00:28:19;;;;;;;;;;;21.00;40.00;;;;;;5076405;28;19930;-41
2022/03/28 00:30:46;;;;;;;;;;;21.00;40.10;;;;;;5075912;28;20007;-38
2022/03/28 00:33:13;;;;;;;;;;;21.00;40.10;;;;;;5076016;28;19967;-40
2022/03/28 00:35:40;;;;;;;;;;;21.00;40.10;;;;;;5057003;28;19931;-40
2022/03/28 00:38:07;;;;;;;;;;;21.00;40.10;;;;;;5075932;28;20015;-38
2022/03/28 00:40:34;;;;;;;;;;;21.00;40.10;;;;;;5076174;28;19974;-39
2022/03/28 00:43:03;;;;;;;;;;;21.00;40.10;;;;;;5076147;28;20331;-39
2022/03/28 00:45:31;;;;;;;;;;;21.00;40.00;;;;;;5075768;28;19967;-41
2022/03/28 00:47:58;;;;;;;;;;;21.00;40.00;;;;;;5075766;28;19968;-41
2022/03/28 00:50:28;;;;;;;;;;;21.00;40.00;;;;;;5074517;28;20322;-40
2022/03/28 00:52:55;;;;;;;;;;;21.00;40.10;;;;;;5075973;28;20037;-38
2022/03/28 00:55:23;;;;;;;;;;;21.00;40.00;;;;;;5075965;28;19959;-48
2022/03/28 00:57:50;;;;;;;;;;;21.00;40.00;;;;;;5075584;28;19971;-44
2022/03/28 01:00:17;;;;;;;;;;;21.00;40.00;;;;;;5075456;28;20007;-43
2022/03/28 01:02:44;;;;;;;;;;;21.00;40.00;;;;;;5075813;28;19954;-40
2022/03/28 01:05:15;;;;;;;;;;;21.00;40.00;;;;;;5075674;28;20011;-42
2022/03/28 01:07:42;;;;;;;;;;;21.00;40.00;;;;;;5055518;28;20288;-41
2022/03/28 01:10:10;;;;;;;;;;;21.00;40.10;;;;;;5055620;28;20348;-41
2022/03/28 01:12:42;;;;;;;;;;;21.00;40.10;;;;;;5055310;28;20372;-43
2022/03/28 01:15:10;;;;;;;;;;;21.00;40.10;;;;;;5055543;28;19928;-42
2022/03/28 01:20:26;;;;;;;;;;;21.00;40.10;;;;;;5054395;28;19925;-42
2022/03/28 01:22:54;;;;;;;;;;;21.00;40.10;;;;;;5053317;28;19978;-46
2022/03/28 01:25:24;;;;;;;;;;;21.00;40.10;;;;;;5054731;28;19935;-40
2022/03/28 01:27:55;;;;;;;;;;;21.00;40.10;;;;;;5054579;28;19991;-42
2022/03/28 01:30:22;;;;;;;;;;;21.00;40.10;;;;;;5054832;28;19925;-40
2022/03/28 01:32:49;;;;;;;;;;;21.00;40.10;;;;;;5054916;28;19979;-42
2022/03/28 01:35:27;;;;;;;;;;;20.90;40.00;;;;;;5054825;28;19932;-41
2022/03/28 01:37:54;;;;;;;;;;;20.90;40.00;;;;;;5054058;28;20013;-40
2022/03/28 01:40:21;;;;;;;;;;;20.90;40.00;;;;;;5055076;28;20033;-43
2022/03/28 01:42:49;;;;;;;;;;;21.00;40.10;;;;;;5054969;28;20021;-41
2022/03/28 01:45:17;;;;;;;;;;;20.90;40.00;;;;;;5054898;28;19932;-39
2022/03/28 01:47:45;;;;;;;;;;;20.90;40.10;;;;;;5054566;28;20019;-43
2022/03/28 01:50:13;;;;;;;;;;;20.90;40.10;;;;;;5054605;28;19979;-42
2022/03/28 01:52:41;;;;;;;;;;;20.90;40.10;;;;;;5053098;28;20454;-40
2022/03/28 01:55:09;;;;;;;;;;;21.00;40.20;;;;;;5054778;28;19925;-39
2022/03/28 01:57:37;;;;;;;;;;;20.90;40.10;;;;;;5054459;28;19972;-42
2022/03/28 02:00:07;;;;;;;;;;;20.90;40.10;;;;;;5054283;28;19955;-39
2022/03/28 02:02:34;;;;;;;;;;;20.90;40.10;;;;;;5054633;28;19951;-39
2022/03/28 02:05:02;;;;;;;;;;;20.90;40.10;;;;;;5054309;28;20024;-40
2022/03/28 02:07:29;;;;;;;;;;;20.90;40.10;;;;;;5066083;28;19975;-41
2022/03/28 02:09:56;;;;;;;;;;;20.90;40.10;;;;;;5074189;28;19924;-39
2022/03/28 02:12:23;;;;;;;;;;;20.90;40.10;;;;;;5074410;28;19974;-38
2022/03/28 02:14:50;;;;;;;;;;;20.90;40.10;;;;;;5074338;28;20011;-39
2022/03/28 02:17:17;;;;;;;;;;;20.90;40.10;;;;;;5074336;28;19963;-39
2022/03/28 02:19:44;;;;;;;;;;;20.90;40.10;;;;;;5074280;28;19928;-39
2022/03/28 02:22:11;;;;;;;;;;;20.90;40.10;;;;;;5054602;28;19977;-39
2022/03/28 02:24:39;;;;;;;;;;;20.90;40.10;;;;;;5073936;28;20018;-39
2022/03/28 02:27:08;;;;;;;;;;;20.90;40.10;;;;;;5073410;28;20128;-40
2022/03/28 02:29:35;;;;;;;;;;;20.90;40.10;;;;;;5073847;28;19931;-41
2022/03/28 02:32:02;;;;;;;;;;;20.90;40.10;;;;;;5074006;28;19924;-39
2022/03/28 02:34:29;;;;;;;;;;;20.90;40.10;;;;;;5073804;28;20451;-38
2022/03/28 02:36:56;;;;;;;;;;;20.90;40.10;;;;;;5066252;28;19925;-40
2022/03/28 02:39:23;;;;;;;;;;;20.90;40.10;;;;;;5053707;28;19968;-39
2022/03/28 02:41:50;;;;;;;;;;;20.90;40.10;;;;;;5054025;28;20379;-40
2022/03/28 02:44:17;;;;;;;;;;;20.90;40.10;;;;;;5054017;28;20288;-40
2022/03/28 02:46:47;;;;;;;;;;;20.90;40.10;;;;;;5053842;28;20023;-39
2022/03/28 02:49:14;;;;;;;;;;;20.90;40.20;;;;;;5053900;28;19975;-40
2022/03/28 02:51:45;;;;;;;;;;;20.90;40.10;;;;;;5054883;28;20031;-39
2022/03/28 02:54:12;;;;;;;;;;;20.90;40.10;;;;;;5073877;28;19974;-39
2022/03/28 02:56:39;;;;;;;;;;;20.90;40.20;;;;;;5073881;28;19925;-41
2022/03/28 02:59:06;;;;;;;;;;;20.90;40.20;;;;;;5055860;28;19924;-39
2022/03/28 03:01:33;;;;;;;;;;;20.90;40.20;;;;;;5073723;28;19970;-39
2022/03/28 03:04:00;;;;;;;;;;;20.90;40.20;;;;;;5073437;28;19998;-40
2022/03/28 03:06:27;;;;;;;;;;;20.90;40.10;;;;;;5073274;28;19929;-39
2022/03/28 03:08:54;;;;;;;;;;;20.90;40.20;;;;;;5053785;28;19932;-41
2022/03/28 03:11:22;;;;;;;;;;;20.90;40.20;;;;;;5053668;28;19932;-43
2022/03/28 03:13:49;;;;;;;;;;;20.90;40.20;;;;;;5053356;28;19932;-42
2022/03/28 03:16:16;;;;;;;;;;;20.90;40.20;;;;;;5053646;28;20015;-41
2022/03/28 03:18:43;;;;;;;;;;;20.90;40.20;;;;;;5053604;28;19960;-39
2022/03/28 03:21:10;;;;;;;;;;;20.90;40.20;;;;;;5053182;28;19948;-40
2022/03/28 03:23:37;;;;;;;;;;;20.90;40.20;;;;;;5068629;28;19968;-40
2022/03/28 03:26:04;;;;;;;;;;;20.90;40.20;;;;;;5073170;28;19993;-42
2022/03/28 03:28:31;;;;;;;;;;;20.90;40.20;;;;;;5073554;28;19932;-39
2022/03/28 03:30:58;;;;;;;;;;;20.90;40.20;;;;;;5073113;28;20020;-39
2022/03/28 03:33:25;;;;;;;;;;;20.90;40.20;;;;;;5073147;28;19925;-39
2022/03/28 03:35:53;;;;;;;;;;;20.90;40.20;;;;;;5073470;28;19925;-40
2022/03/28 03:38:20;;;;;;;;;;;20.90;40.20;;;;;;5072003;28;20346;-40
2022/03/28 03:40:47;;;;;;;;;;;20.90;40.20;;;;;;5055387;28;19967;-41
2022/03/28 03:43:14;;;;;;;;;;;20.90;40.20;;;;;;5073395;28;19928;-41
2022/03/28 03:45:41;;;;;;;;;;;20.90;40.20;;;;;;5073301;28;20007;-41
2022/03/28 03:48:08;;;;;;;;;;;20.80;40.10;;;;;;5073078;28;20375;-39
2022/03/28 03:50:35;;;;;;;;;;;20.90;40.20;;;;;;5075661;28;19931;-42
2022/03/28 03:53:02;;;;;;;;;;;20.80;40.10;;;;;;5067190;28;19932;-39
2022/03/28 03:55:32;;;;;;;;;;;20.80;40.10;;;;;;5056710;28;20434;-40
2022/03/28 03:57:59;;;;;;;;;;;20.80;40.10;;;;;;5056702;28;20023;-39
2022/03/28 04:00:26;;;;;;;;;;;20.80;40.10;;;;;;5056577;28;19973;-40
2022/03/28 04:02:53;;;;;;;;;;;20.80;40.10;;;;;;5056932;28;19975;-39
2022/03/28 04:05:20;;;;;;;;;;;20.80;40.10;;;;;;5056870;28;19924;-39
2022/03/28 04:07:47;;;;;;;;;;;20.80;40.10;;;;;;5060079;28;20424;-39
2022/03/28 04:10:14;;;;;;;;;;;20.80;40.10;;;;;;5076769;28;19974;-39
2022/03/28 04:12:41;;;;;;;;;;;20.80;40.10;;;;;;5076735;28;19947;-39
2022/03/28 04:15:08;;;;;;;;;;;20.80;40.10;;;;;;5076426;28;19978;-40
2022/03/28 04:17:39;;;;;;;;;;;20.80;40.10;;;;;;5076662;28;20349;-42
2022/03/28 04:20:06;;;;;;;;;;;20.80;40.20;;;;;;5076277;28;20308;-39
2022/03/28 04:22:33;;;;;;;;;;;20.80;40.10;;;;;;5074220;28;20327;-45
2022/03/28 04:25:00;;;;;;;;;;;20.80;40.10;;;;;;5076565;28;19928;-43
2022/03/28 04:27:27;;;;;;;;;;;20.80;40.10;;;;;;5076041;28;19932;-43
2022/03/28 04:29:54;;;;;;;;;;;20.80;40.20;;;;;;5076320;28;19925;-42
2022/03/28 04:32:21;;;;;;;;;;;20.80;40.20;;;;;;5076424;28;20288;-45
2022/03/28 04:34:48;;;;;;;;;;;20.80;40.10;;;;;;5076372;28;19924;-42
2022/03/28 04:37:16;;;;;;;;;;;20.80;40.10;;;;;;5076298;28;19925;-45
2022/03/28 04:39:43;;;;;;;;;;;20.80;40.10;;;;;;5056246;28;19947;-45
2022/03/28 04:42:10;;;;;;;;;;;20.80;40.10;;;;;;5056238;28;20016;-42
2022/03/28 04:44:37;;;;;;;;;;;20.80;40.10;;;;;;5056116;28;20287;-41
2022/03/28 04:47:07;;;;;;;;;;;20.80;40.10;;;;;;5056114;28;20007;-40
2022/03/28 04:49:34;;;;;;;;;;;20.80;40.20;;;;;;5056611;28;19951;-40
2022/03/28 04:52:01;;;;;;;;;;;20.80;40.10;;;;;;5055838;28;20015;-43
2022/03/28 04:54:28;;;;;;;;;;;20.80;40.10;;;;;;5069897;28;19924;-44
2022/03/28 04:56:55;;;;;;;;;;;20.80;40.20;;;;;;5075878;28;20007;-39
2022/03/28 04:59:22;;;;;;;;;;;20.80;40.10;;;;;;5075582;28;19950;-40
2022/03/28 05:01:49;;;;;;;;;;;20.80;40.10;;;;;;5074459;28;20333;-42
2022/03/28 05:04:16;;;;;;;;;;;20.80;40.10;;;;;;5075780;28;19968;-40
2022/03/28 05:06:42;;;;;;;;;;;20.80;40.10;;;;;;5075343;28;20414;-42
2022/03/28 05:09:09;;;;;;;;;;;20.80;40.10;;;;;;5073832;28;19924;-41
2022/03/28 05:11:36;;;;;;;;;;;20.80;40.10;;;;;;5057648;28;19963;-44
2022/03/28 05:14:04;;;;;;;;;;;20.80;40.10;;;;;;5075261;28;19924;-42
2022/03/28 05:16:31;;;;;;;;;;;20.80;40.10;;;;;;5075129;28;19924;-41
2022/03/28 05:18:58;;;;;;;;;;;20.80;40.10;;;;;;5075456;28;19925;-42
2022/03/28 05:21:25;;;;;;;;;;;20.80;40.10;;;;;;5074739;28;19929;-46
2022/03/28 05:23:51;;;;;;;;;;;20.80;40.10;;;;;;5073805;28;20305;-42
2022/03/28 05:26:19;;;;;;;;;;;20.80;40.10;;;;;;5074897;28;19931;-40
2022/03/28 05:28:45;;;;;;;;;;;20.80;40.10;;;;;;5075269;28;19928;-42
2022/03/28 05:31:12;;;;;;;;;;;20.80;40.10;;;;;;5074826;28;19967;-45
2022/03/28 05:33:40;;;;;;;;;;;20.80;40.00;;;;;;5075212;28;20399;-41
2022/03/28 05:36:07;;;;;;;;;;;20.80;40.00;;;;;;5074796;28;19925;-40
2022/03/28 05:38:34;;;;;;;;;;;20.80;40.00;;;;;;5073447;28;20515;-38
2022/03/28 05:41:04;;;;;;;;;;;20.90;40.10;;;;;;5075028;28;19924;-41
2022/03/28 05:43:32;;;;;;;;;;;20.90;40.10;;;;;;5057677;28;19925;-43
2022/03/28 05:45:59;;;;;;;;;;;20.90;40.00;;;;;;5057707;28;19977;-39
2022/03/28 05:48:26;;;;;;;;;;;20.90;40.00;;;;;;5074440;28;20442;-45
2022/03/28 05:50:53;;;;;;;;;;;20.90;40.60;;;;;;5074287;28;19931;-38
2022/03/28 05:53:20;;;;;;;;;;;20.90;40.00;;;;;;5073633;28;19924;-39
2022/03/28 05:55:48;;;;;;;;;;;20.90;40.10;;;;;;5054317;28;19999;-38
2022/03/28 05:58:15;;;;;;;;;;;20.90;40.00;;;;;;5054283;28;19924;-39
2022/03/28 06:00:42;;;;;;;;;;;20.90;40.00;;;;;;5054250;28;19925;-38
2022/03/28 06:03:09;;;;;;;;;;;20.90;40.00;;;;;;5054495;28;19931;-40
2022/03/28 06:05:56;;;;;;;;;;;20.90;40.00;;;;;;5054218;28;19990;-39
2022/03/28 06:08:23;;;;;;;;;;;20.90;39.90;;;;;;5054352;28;20007;-39
2022/03/28 06:10:50;;;;;;;;;;;20.90;39.90;;;;;;5073380;28;19924;-39
2022/03/28 06:13:18;;;;;;;;;;;20.90;40.00;;;;;;5073799;28;19978;-42
2022/03/28 06:15:45;;;;;;;;;;;20.90;39.90;;;;;;5074218;28;20252;-43
2022/03/28 06:18:12;;;;;;;;;;;20.90;39.90;;;;;;5073854;28;19924;-45
2022/03/28 06:20:39;;;;;;;;;;;20.90;39.80;;;;;;5073784;28;19963;-43
2022/03/28 06:23:09;;;;;;;;;;;20.90;39.80;;;;;;5074194;28;20335;-45
2022/03/28 06:25:36;;;;;;;;;;;20.90;39.80;;;;;;5072569;28;19928;-42
2022/03/28 06:28:03;;;;;;;;;;;20.90;39.90;;;;;;5073734;28;19925;-46
2022/03/28 06:30:30;;;;;;;;;;;20.90;39.80;;;;;;5073641;28;19929;-43
2022/03/28 06:32:57;;;;;;;;;;;20.90;39.80;;;;;;5074258;28;19928;-41
2022/03/28 06:35:24;;;;;;;;;;;21.00;39.90;;;;;;5074052;28;20445;-39
2022/03/28 06:37:52;;;;;;;;;;;21.00;39.90;;;;;;5073661;28;20011;-40
2022/03/28 06:40:20;;;;;;;;;;;21.00;39.80;;;;;;5072204;28;19939;-39
2022/03/28 06:42:47;;;;;;;;;;;21.00;39.90;;;;;;5073631;28;19924;-40
2022/03/28 06:45:15;;;;;;;;;;;21.00;39.80;;;;;;5073594;28;19979;-41
2022/03/28 06:47:51;;;;;;;;;;;21.00;39.80;;;;;;5073851;28;19924;-39
2022/03/28 06:50:24;;;;;;;;;;;21.00;39.80;;;;;;5073818;28;20346;-42
2022/03/28 06:52:52;;;;;;;;;;;21.00;39.80;;;;;;5073681;28;19928;-41
2022/03/28 06:55:20;;;;;;;;;;;21.00;39.80;;;;;;5071581;28;19970;-39
2022/03/28 06:57:47;;;;;;;;;;;21.00;39.80;;;;;;5073388;28;20409;-43
2022/03/28 07:00:14;;;;;;;;;;;21.00;39.70;;;;;;5073628;28;19924;-38
2022/03/28 07:02:41;;;;;;;;;;;21.00;39.70;;;;;;5073653;28;20328;-39
2022/03/28 07:05:08;;;;;;;;;;;21.00;39.70;;;;;;5055771;28;20015;-42
2022/03/28 07:07:39;;;;;;;;;;;21.00;39.70;;;;;;5073600;28;19924;-41
2022/03/28 07:10:07;;;;;;;;;;;21.00;39.70;;;;;;5071684;28;19928;-39
2022/03/28 07:12:34;;;;;;;;;;;21.00;39.70;;;;;;5073526;28;19929;-40
2022/03/28 07:15:01;;;;;;;;;;;21.00;39.70;;;;;;5073617;28;20028;-41
2022/03/28 07:17:28;;;;;;;;;;;21.00;39.70;;;;;;5073137;28;19930;-40
2022/03/28 07:19:55;;;;;;;;;;;21.00;39.70;;;;;;5073274;28;19924;-39
2022/03/28 07:22:22;;;;;;;;;;;21.10;39.70;;;;;;5072863;28;19924;-42
2022/03/28 07:24:50;;;;;;;;;;;21.10;39.70;;;;;;5073415;28;20007;-44
2022/03/28 07:27:17;;;;;;;;;;;21.10;39.70;;;;;;5077153;28;19924;-42
2022/03/28 07:29:44;;;;;;;;;;;21.10;39.70;;;;;;5077155;28;19978;-39
2022/03/28 07:32:11;;;;;;;;;;;21.10;39.70;;;;;;5077517;28;19993;-42
2022/03/28 07:34:42;;;;;;;;;;;21.10;40.30;;;;;;5077225;28;19924;-45
2022/03/28 07:37:10;;;;;;;;;;;21.10;39.70;;;;;;5077418;28;20351;-40
2022/03/28 07:39:39;;;;;;;;;;;21.10;39.60;;;;;;5074897;28;19983;-41
2022/03/28 07:42:10;;;;;;;;;;;21.10;39.60;;;;;;5076884;28;20073;-45
2022/03/28 07:44:37;;;;;;;;;;;21.10;39.60;;;;;;5077245;28;19929;-39
2022/03/28 07:47:05;;;;;;;;;;;21.10;39.60;;;;;;5077569;28;20027;-40
2022/03/28 07:49:34;;;;;;;;;;;21.10;39.60;;;;;;5077165;28;20065;-42
2022/03/28 07:52:02;;;;;;;;;;;21.10;39.60;;;;;;5077261;28;20391;-41
2022/03/28 07:54:31;;;;;;;;;;;21.10;39.50;;;;;;5076663;28;19947;-38
2022/03/28 07:56:58;;;;;;;;;;;21.10;39.50;;;;;;5075856;28;20043;-43
2022/03/28 07:59:25;;;;;;;;;;;21.10;39.50;;;;;;5076302;28;20288;-40
2022/03/28 08:01:52;;;;;;;;;;;21.10;39.50;;;;;;5076605;28;19928;-39
2022/03/28 08:04:25;;;;;;;;;;;21.20;39.60;;;;;;5076902;28;19924;-41
2022/03/28 08:06:51;;;;;;;;;;;21.20;39.60;;;;;;5076594;28;20003;-46
2022/03/28 08:09:19;;;;;;;;;;;21.20;39.60;;;;;;5076408;28;20421;-42
2022/03/28 08:11:46;;;;;;;;;;;21.20;39.50;;;;;;5075233;28;19928;-41
2022/03/28 08:14:13;;;;;;;;;;;21.20;39.50;;;;;;5076609;28;19931;-40
2022/03/28 08:16:40;;;;;;;;;;;21.20;39.50;;;;;;5058647;28;19924;-46
2022/03/28 08:19:07;;;;;;;;;;;21.20;39.40;;;;;;5076347;28;19928;-41
2022/03/28 08:21:34;;;;;;;;;;;21.20;39.40;;;;;;5076025;28;19924;-42
2022/03/28 08:24:01;;;;;;;;;;;21.20;39.40;;;;;;5076474;28;19939;-40
2022/03/28 08:26:28;;;;;;;;;;;21.20;39.40;;;;;;5044903;28;19952;-42
2022/03/28 08:28:56;;;;;;;;;;;21.20;39.30;;;;;;5056371;28;19932;-40
2022/03/28 08:31:23;;;;;;;;;;;21.20;39.40;;;;;;5056231;28;19968;-41
2022/03/28 08:33:50;;;;;;;;;;;21.20;39.30;;;;;;5056006;28;19924;-39
2022/03/28 08:36:17;;;;;;;;;;;21.20;39.30;;;;;;5055701;28;19925;-40
2022/03/28 08:38:44;;;;;;;;;;;21.30;39.40;;;;;;5056138;28;20021;-47
2022/03/28 08:41:14;;;;;;;;;;;21.20;39.30;;;;;;5054942;28;19951;-42
2022/03/28 08:43:41;;;;;;;;;;;21.30;39.40;;;;;;5038689;28;19925;-43
2022/03/28 08:46:09;;;;;;;;;;;21.30;39.40;;;;;;5056088;28;19990;-43
2022/03/28 08:48:40;;;;;;;;;;;21.30;39.30;;;;;;5055829;28;19929;-44
2022/03/28 08:51:09;;;;;;;;;;;21.30;39.30;;;;;;5055879;28;19947;-46
2022/03/28 08:53:36;;;;;;;;;;;21.30;39.30;;;;;;5054868;28;19924;-46
2022/03/28 08:56:04;;;;;;;;;;;21.30;39.30;;;;;;5061318;28;19978;-42
2022/03/28 08:58:51;;;;;;;;;;;21.30;39.20;;;;;;5075494;28;19975;-41
2022/03/28 09:01:22;;;;;;;;;;;21.30;39.20;;;;;;5075345;28;19994;-41
2022/03/28 09:03:49;;;;;;;;;;;21.30;39.20;;;;;;5075739;28;19960;-45
2022/03/28 09:06:29;;;;;;;;;;;21.30;39.20;;;;;;5075756;28;19991;-42
2022/03/28 09:09:23;;;;;;;;;;;21.30;39.20;;;;;;5075283;28;20524;-45
2022/03/28 09:11:52;;;;;;;;;;;21.40;39.20;;;;;;5073782;28;19928;-46
2022/03/28 09:14:27;;;;;;;;;;;21.40;39.20;;;;;;5075216;28;20375;-44
2022/03/28 09:17:04;;;;;;;;;;;21.40;39.20;;;;;;5075137;28;19968;-45
2022/03/28 09:19:42;;;;;;;;;;;21.40;39.20;;;;;;5075179;28;19925;-40
2022/03/28 09:22:20;;;;;;;;;;;21.40;39.20;;;;;;5074934;28;19925;-44
2022/03/28 09:24:47;;;;;;;;;;;21.40;39.20;;;;;;5075291;28;19929;-48
2022/03/28 09:27:16;;;;;;;;;;;21.40;39.20;;;;;;5073272;28;19925;-40
2022/03/28 09:29:53;;;;;;;;;;;21.40;39.10;;;;;;5075182;28;19978;-46
2022/03/28 09:32:22;;;;;;;;;;;21.40;39.10;;;;;;5075209;28;20343;-40
2022/03/28 09:35:09;;;;;;;;;;;21.40;39.10;;;;;;5075563;28;19924;-40
2022/03/28 09:37:58;;;;;;;;;;;21.50;39.20;;;;;;5074630;28;19978;-40
2022/03/28 09:40:25;;;;;;;;;;;21.50;39.20;;;;;;5074796;28;19978;-45
2022/03/28 09:42:52;;;;;;;;;;;21.50;39.20;;;;;;5073494;28;20019;-45
2022/03/28 09:45:24;;;;;;;;;;;21.50;39.20;;;;;;5074832;28;19924;-46
2022/03/28 09:47:59;;;;;;;;;;;21.50;39.20;;;;;;5074194;28;20015;-44
2022/03/28 09:50:27;;;;;;;;;;;21.50;39.20;;;;;;5074461;28;19928;-42
2022/03/28 09:53:13;;;;;;;;;;;21.50;39.20;;;;;;5074806;28;19924;-43
2022/03/28 09:55:47;;;;;;;;;;;21.50;39.20;;;;;;5074750;28;19925;-44
2022/03/28 09:58:38;;;;;;;;;;;21.50;39.10;;;;;;5057586;28;19962;-47
2022/03/28 10:01:06;;;;;;;;;;;21.50;39.10;;;;;;5074149;28;19938;-41
2022/03/28 10:03:35;;;;;;;;;;;21.50;39.10;;;;;;5074500;28;20450;-42
2022/03/28 10:06:04;;;;;;;;;;;21.60;39.20;;;;;;5075000;28;19988;-41
2022/03/28 10:08:32;;;;;;;;;;;21.60;39.20;;;;;;5074112;28;19932;-40
2022/03/28 10:10:59;;;;;;;;;;;21.60;39.20;;;;;;5074078;28;19930;-40
2022/03/28 10:13:29;;;;;;;;;;;21.60;39.20;;;;;;5073867;28;19998;-41
2022/03/28 10:15:58;;;;;;;;;;;21.60;39.10;;;;;;5074057;28;20022;-39
2022/03/28 10:18:35;;;;;;;;;;;21.60;39.20;;;;;;5074311;28;19925;-39
2022/03/28 10:21:17;;;;;;;;;;;21.60;39.10;;;;;;5073615;28;20372;-40
2022/03/28 10:23:50;;;;;;;;;;;21.60;39.10;;;;;;5074154;28;20029;-39
2022/03/28 10:26:19;;;;;;;;;;;21.60;39.20;;;;;;5072344;28;19925;-42
2022/03/28 10:29:19;;;;;;;;;;;21.60;39.10;;;;;;5054850;28;19936;-39
2022/03/28 10:31:53;;;;;;;;;;;21.60;39.20;;;;;;5012394;28;20004;-39
2022/03/28 10:34:48;;;;;;;;;;;21.60;39.20;;;;;;5012244;28;19932;-38
2022/03/28 10:37:25;;;;;;;;;;;21.60;39.20;;;;;;5012123;28;20067;-38
2022/03/28 10:40:13;;;;;;;;;;;21.60;39.20;;;;;;5012058;28;19926;-40
2022/03/28 10:42:46;;;;;;;;;;;21.60;39.80;;;;;;5014967;28;19971;-38
2022/03/28 10:45:18;;;;;;;;;;;21.60;39.20;;;;;;5031621;28;19925;-40
2022/03/28 10:47:53;;;;;;;;;;;21.60;39.30;;;;;;5031697;28;20400;-41
2022/03/28 10:50:24;;;;;;;;;;;21.60;39.30;;;;;;5032342;28;20411;-38
2022/03/28 10:53:11;;;;;;;;;;;21.60;39.30;;;;;;5031095;28;19983;-42
2022/03/28 10:55:38;;;;;;;;;;;21.60;39.30;;;;;;5031730;28;19929;-39
2022/03/28 10:58:10;;;;;;;;;;;21.60;39.30;;;;;;5029708;28;20015;-39
2022/03/28 11:00:37;;;;;;;;;;;21.60;39.30;;;;;;5031455;28;20025;-40
2022/03/28 11:03:04;;;;;;;;;;;21.60;39.30;;;;;;5031428;28;19925;-42
2022/03/28 11:05:51;;;;;;;;;;;21.60;39.30;;;;;;5031360;28;19971;-42
2022/03/28 11:08:53;;;;;;;;;;;21.60;39.30;;;;;;5050103;28;20396;-40
2022/03/28 11:11:27;;;;;;;;;;;21.60;39.30;;;;;;5040541;28;20438;-40
2022/03/28 11:14:05;;;;;;;;;;;21.60;39.30;;;;;;5071565;28;19924;-45
2022/03/28 11:16:38;;;;;;;;;;;21.60;39.30;;;;;;5072879;28;19924;-39
2022/03/28 11:19:41;;;;;;;;;;;21.60;39.30;;;;;;5073429;28;19925;-41
2022/03/28 11:22:08;;;;;;;;;;;21.60;39.30;;;;;;5011149;28;19929;-42
2022/03/28 11:24:41;;;;;;;;;;;21.60;39.30;;;;;;5011759;28;19969;-40
2022/03/28 11:27:09;;;;;;;;;;;21.60;39.30;;;;;;5010033;28;19934;-41
2022/03/28 11:29:36;;;;;;;;;;;21.60;39.30;;;;;;5011365;28;19925;-43
2022/03/28 11:32:05;;;;;;;;;;;21.60;39.30;;;;;;5011536;28;20451;-43
2022/03/28 11:34:33;;;;;;;;;;;21.60;39.30;;;;;;5011398;28;20029;-41
2022/03/28 11:37:00;;;;;;;;;;;21.60;39.30;;;;;;5011508;28;20382;-39
2022/03/28 11:39:29;;;;;;;;;;;21.60;39.30;;;;;;5011431;28;19933;-40
2022/03/28 11:41:56;;;;;;;;;;;21.60;39.30;;;;;;5011288;28;19925;-40
2022/03/28 11:44:25;;;;;;;;;;;21.60;39.40;;;;;;5010678;28;19925;-40
2022/03/28 11:46:57;;;;;;;;;;;21.60;39.40;;;;;;5012111;28;19926;-39
2022/03/28 11:49:24;;;;;;;;;;;21.60;39.40;;;;;;5011328;28;19929;-39
2022/03/28 11:51:51;;;;;;;;;;;21.60;39.40;;;;;;5011123;28;19957;-44
2022/03/28 11:54:19;;;;;;;;;;;21.60;39.30;;;;;;5012028;28;19965;-39
2022/03/28 11:59:39;;;;;;;;;;;21.60;39.40;;;;;;5072182;28;19925;-39
2022/03/28 12:02:06;;;;;;;;;;;21.60;39.40;;;;;;5073275;28;20319;-41
2022/03/28 12:04:42;;;;;;;;;;;21.60;39.30;;;;;;5073233;28;19931;-38
2022/03/28 12:07:09;;;;;;;;;;;21.60;39.40;;;;;;5072936;28;19964;-38
2022/03/28 12:09:43;;;;;;;;;;;21.60;39.40;;;;;;5073089;28;19978;-39
2022/03/28 12:12:10;;;;;;;;;;;21.60;39.40;;;;;;5076739;28;20003;-39
2022/03/28 12:14:42;;;;;;;;;;;21.60;39.40;;;;;;5075722;28;19925;-38
2022/03/28 12:17:10;;;;;;;;;;;21.60;39.40;;;;;;5076402;28;20479;-40
2022/03/28 12:19:38;;;;;;;;;;;21.60;39.40;;;;;;5076403;28;19928;-38
2022/03/28 12:22:12;;;;;;;;;;;21.60;39.30;;;;;;5076069;28;19925;-38
2022/03/28 12:24:50;;;;;;;;;;;21.60;39.30;;;;;;5076244;28;19925;-40
2022/03/28 12:27:18;;;;;;;;;;;21.60;39.30;;;;;;5076213;28;19950;-38
2022/03/28 12:29:47;;;;;;;;;;;21.60;39.30;;;;;;5074268;28;19931;-40
2022/03/28 12:32:16;;;;;;;;;;;21.60;39.90;;;;;;5076433;28;19924;-38
2022/03/28 12:34:44;;;;;;;;;;;21.60;39.30;;;;;;5076072;28;19978;-40
2022/03/28 12:37:15;;;;;;;;;;;21.60;39.30;;;;;;5076188;28;19924;-40
2022/03/28 12:39:43;;;;;;;;;;;21.60;39.30;;;;;;5076308;28;19924;-39
2022/03/28 12:42:24;;;;;;;;;;;21.60;39.30;;;;;;5076257;28;19924;-39
2022/03/28 12:44:54;;;;;;;;;;;21.60;39.30;;;;;;5074803;28;19959;-38
2022/03/28 12:47:25;;;;;;;;;;;21.60;39.30;;;;;;5076121;28;20009;-41
2022/03/28 12:49:53;;;;;;;;;;;21.60;39.30;;;;;;5076037;28;19970;-39
2022/03/28 12:52:24;;;;;;;;;;;21.60;39.30;;;;;;5075788;28;19929;-42
2022/03/28 12:54:55;;;;;;;;;;;21.60;39.30;;;;;;5076076;28;20281;-38
2022/03/28 12:57:27;;;;;;;;;;;21.60;39.30;;;;;;5075621;28;19950;-40
2022/03/28 12:59:54;;;;;;;;;;;21.60;39.20;;;;;;5056907;28;19929;-47
2022/03/28 13:02:21;;;;;;;;;;;21.60;39.30;;;;;;5055830;28;19925;-41
2022/03/28 13:04:50;;;;;;;;;;;21.70;39.30;;;;;;5055808;28;19929;-44
2022/03/28 13:07:18;;;;;;;;;;;21.70;39.30;;;;;;5055511;28;20393;-44
2022/03/28 13:10:00;;;;;;;;;;;21.60;39.20;;;;;;5055340;28;19928;-40
2022/03/28 13:12:40;;;;;;;;;;;21.70;39.30;;;;;;5055574;28;19931;-39
2022/03/28 13:15:18;;;;;;;;;;;21.70;39.30;;;;;;5072774;28;20334;-39
2022/03/28 13:17:46;;;;;;;;;;;21.70;39.30;;;;;;5057596;28;19924;-38
2022/03/28 13:20:21;;;;;;;;;;;21.70;39.30;;;;;;5075521;28;19928;-38
2022/03/28 13:22:50;;;;;;;;;;;21.70;39.30;;;;;;5073816;28;20330;-39
2022/03/28 13:25:20;;;;;;;;;;;21.70;39.30;;;;;;5075121;28;19931;-40
2022/03/28 13:28:02;;;;;;;;;;;21.70;39.30;;;;;;5075093;28;19977;-42
2022/03/28 13:30:31;;;;;;;;;;;21.70;39.20;;;;;;5074280;28;20387;-43
2022/03/28 13:32:59;;;;;;;;;;;21.70;39.20;;;;;;5075311;28;19928;-47
2022/03/28 13:35:26;;;;;;;;;;;21.70;39.20;;;;;;5075224;28;19925;-42
2022/03/28 13:37:55;;;;;;;;;;;21.70;39.20;;;;;;5074832;28;19929;-41
2022/03/28 13:40:23;;;;;;;;;;;21.70;39.20;;;;;;5075341;28;20449;-41
2022/03/28 13:42:50;;;;;;;;;;;21.70;39.20;;;;;;5074755;28;20380;-42
2022/03/28 13:45:18;;;;;;;;;;;21.70;39.20;;;;;;5073390;28;19924;-40
2022/03/28 13:47:46;;;;;;;;;;;21.70;39.20;;;;;;5074632;28;20343;-44
2022/03/28 13:50:13;;;;;;;;;;;21.70;39.20;;;;;;5074808;28;19974;-41
2022/03/28 13:53:01;;;;;;;;;;;21.70;39.20;;;;;;5074543;28;19924;-40
2022/03/28 13:55:27;;;;;;;;;;;21.70;39.20;;;;;;5074530;28;19954;-43
2022/03/28 13:57:55;;;;;;;;;;;21.70;39.20;;;;;;5074499;28;20057;-42
2022/03/28 14:00:22;;;;;;;;;;;21.70;39.20;;;;;;5055167;28;19940;-38
2022/03/28 14:03:06;;;;;;;;;;;21.70;39.20;;;;;;5074461;28;19925;-41
2022/03/28 14:05:34;;;;;;;;;;;21.70;39.20;;;;;;5074588;28;20338;-44
2022/03/28 14:08:03;;;;;;;;;;;21.70;39.20;;;;;;5074330;28;19930;-39
2022/03/28 14:10:30;;;;;;;;;;;21.70;39.20;;;;;;5074171;28;19924;-38
2022/03/28 14:12:57;;;;;;;;;;;21.70;39.20;;;;;;5074528;28;19932;-46
2022/03/28 14:15:24;;;;;;;;;;;21.70;39.20;;;;;;5072906;28;20327;-43
2022/03/28 14:17:51;;;;;;;;;;;21.70;39.20;;;;;;5074073;28;19924;-40
2022/03/28 14:20:19;;;;;;;;;;;21.70;39.20;;;;;;5073993;28;19935;-42
2022/03/28 14:22:46;;;;;;;;;;;21.70;39.20;;;;;;5073758;28;19924;-39
2022/03/28 14:25:14;;;;;;;;;;;21.70;39.20;;;;;;5074758;28;19925;-39
2022/03/28 14:27:41;;;;;;;;;;;21.70;39.20;;;;;;5074208;28;19936;-39
2022/03/28 14:30:08;;;;;;;;;;;21.70;39.20;;;;;;5072507;28;19935;-39
2022/03/28 14:32:35;;;;;;;;;;;21.70;39.80;;;;;;5074033;28;19924;-45
2022/03/28 14:35:07;;;;;;;;;;;21.70;39.20;;;;;;5073692;28;20398;-39